Time;durP1;ratioP1;P1;durP2;ratioP2;P2;SDS_P1;SDS_P2;PMS_P1;PMS_P2;Temp;Humidity;BMP_temperature;BMP_pressure;BME280_temperature;BME280_humidity;BME280_pressure;Samples;Min_cycle;Max_cycle;Signal;HPM_P1;HPM_P2
2023/06/11 00:00:51;;;;;;;13.90;11.18;;;;;;;12.99;100.00;92876.97;2063032;28;20103;-82
2023/06/11 00:01:52;;;;;;;13.63;10.50;;;;;;;12.98;100.00;92878.16;2056063;28;20558;-82
2023/06/11 00:02:56;;;;;;;12.65;11.10;;;;;;;12.84;100.00;92873.28;2067349;28;20065;-82
2023/06/11 00:03:57;;;;;;;15.43;11.60;;;;;;;12.85;100.00;92869.41;2068248;28;20033;-82
2023/06/11 00:04:59;;;;;;;14.32;11.20;;;;;;;12.73;100.00;92873.66;2064415;28;20054;-82
2023/06/11 00:06:01;;;;;;;13.93;10.93;;;;;;;12.79;100.00;92879.22;2053423;28;20349;-84
2023/06/11 00:07:06;;;;;;;12.68;11.38;;;;;;;12.78;100.00;92878.47;2054686;28;20031;-80
2023/06/11 00:08:13;;;;;;;16.10;11.40;;;;;;;12.82;100.00;92875.66;2065605;28;20116;-81
2023/06/11 00:09:21;;;;;;;12.40;11.02;;;;;;;12.81;100.00;92879.50;2060491;28;20525;-81
2023/06/11 00:10:23;;;;;;;12.52;11.05;;;;;;;12.79;100.00;92879.22;2066096;28;20028;-82
2023/06/11 00:11:30;;;;;;;16.08;11.93;;;;;;;12.74;100.00;92879.78;2073056;28;20026;-81
2023/06/11 00:12:39;;;;;;;14.73;11.52;;;;;;;12.67;100.00;92878.06;2073206;28;20269;-83
2023/06/11 00:13:47;;;;;;;14.70;11.35;;;;;;;12.71;100.00;92884.06;2079292;28;20569;-84
2023/06/11 00:14:53;;;;;;;13.10;11.30;;;;;;;12.74;100.00;92880.50;2069539;28;20490;-80
2023/06/11 00:16:01;;;;;;;15.68;12.00;;;;;;;12.68;100.00;92876.13;2065239;28;20501;-83
2023/06/11 00:17:06;;;;;;;15.98;10.95;;;;;;;12.76;100.00;92877.38;2073491;28;20048;-83
2023/06/11 00:18:12;;;;;;;12.85;11.00;;;;;;;12.71;100.00;92878.69;2064880;28;20121;-82
2023/06/11 00:19:20;;;;;;;14.10;11.32;;;;;;;12.78;100.00;92880.41;2065963;28;20084;-84
2023/06/11 00:20:26;;;;;;;14.60;11.50;;;;;;;12.77;100.00;92878.88;2076743;28;20026;-82
2023/06/11 00:21:43;;;;;;;14.68;11.68;;;;;;;12.79;100.00;92879.22;2073363;28;20344;-82
2023/06/11 00:22:47;;;;;;;13.57;11.60;;;;;;;12.71;100.00;92869.91;2067888;28;20068;-84
2023/06/11 00:23:55;;;;;;;15.50;11.90;;;;;;;12.62;100.00;92872.50;2067897;28;20030;-84
2023/06/11 00:25:04;;;;;;;14.23;11.02;;;;;;;12.64;100.00;92873.56;2072446;28;20464;-84
2023/06/11 00:26:18;;;;;;;15.40;12.07;;;;;;;12.69;100.00;92869.59;2068613;28;20038;-81
2023/06/11 00:27:28;;;;;;;16.08;12.05;;;;;;;12.59;100.00;92866.06;2071677;28;20033;-83
2023/06/11 00:28:31;;;;;;;14.60;11.80;;;;;;;12.66;100.00;92876.56;2080371;28;20397;-82
2023/06/11 00:29:38;;;;;;;13.25;11.07;;;;;;;12.66;100.00;92873.13;2070001;28;20344;-83
2023/06/11 00:30:44;;;;;;;15.45;12.60;;;;;;;12.62;100.00;92878.63;2060633;28;20035;-81
2023/06/11 00:31:49;;;;;;;14.80;12.40;;;;;;;12.65;100.00;92877.75;2065751;28;20058;-80
2023/06/11 00:32:56;;;;;;;15.27;11.52;;;;;;;12.68;100.00;92876.88;2065166;28;20022;-82
2023/06/11 00:34:05;;;;;;;13.90;11.52;;;;;;;12.72;100.00;92877.50;2072709;28;20161;-82
2023/06/11 00:35:13;;;;;;;16.17;12.50;;;;;;;12.68;100.00;92878.81;2073324;28;20102;-82
2023/06/11 00:36:21;;;;;;;16.05;11.77;;;;;;;12.69;100.00;92883.75;2063146;28;20238;-84
2023/06/11 00:37:25;;;;;;;15.80;12.52;;;;;;;12.64;100.00;92878.91;2072137;28;20028;-82
2023/06/11 00:38:28;;;;;;;16.23;12.35;;;;;;;12.63;100.00;92884.72;2073400;28;20486;-82
2023/06/11 00:39:33;;;;;;;16.92;12.07;;;;;;;12.60;100.00;92881.75;2062377;28;20026;-82
2023/06/11 00:40:38;;;;;;;18.50;13.20;;;;;;;12.56;100.00;92881.09;2054744;28;20023;-82
2023/06/11 00:41:48;;;;;;;16.92;13.55;;;;;;;12.38;100.00;92885.53;2070904;28;20169;-83
2023/06/11 00:42:51;;;;;;;16.92;11.95;;;;;;;12.31;100.00;92887.28;2068014;28;20040;-82
2023/06/11 00:44:00;;;;;;;16.38;12.32;;;;;;;12.34;100.00;92880.31;2062544;28;20308;-83
2023/06/11 00:45:03;;;;;;;18.33;12.95;;;;;;;12.43;100.00;92880.41;2061947;28;20479;-82
2023/06/11 00:46:12;;;;;;;15.57;12.23;;;;;;;12.48;100.00;92885.19;2053799;28;20023;-83
2023/06/11 00:47:24;;;;;;;17.10;12.98;;;;;;;12.42;100.00;92884.25;2066487;28;20034;-82
2023/06/11 00:48:30;;;;;;;14.70;12.25;;;;;;;12.46;100.00;92887.56;2076241;28;20513;-83
2023/06/11 00:49:38;;;;;;;14.98;12.27;;;;;;;12.39;100.00;92890.47;2063861;28;20138;-82
2023/06/11 00:50:48;;;;;;;14.18;11.73;;;;;;;12.40;100.00;92883.19;2057296;28;20034;-82
2023/06/11 00:51:57;;;;;;;16.95;12.50;;;;;;;12.41;100.00;92890.78;2065494;28;20058;-80
2023/06/11 00:53:05;;;;;;;16.40;13.07;;;;;;;12.33;100.00;92884.91;2071383;28;20030;-82
2023/06/11 00:54:21;;;;;;;15.77;12.75;;;;;;;12.26;100.00;92885.16;2063366;28;20435;-82
2023/06/11 00:55:30;;;;;;;15.10;11.73;;;;;;;12.27;100.00;92888.56;2051790;28;20050;-87
2023/06/11 00:56:39;;;;;;;15.27;12.20;;;;;;;12.41;100.00;92884.69;2057780;28;20465;-84
2023/06/11 00:57:47;;;;;;;14.40;11.32;;;;;;;12.31;100.00;92892.63;2065219;28;20046;-82
2023/06/11 00:58:53;;;;;;;18.60;11.55;;;;;;;12.40;100.00;92891.97;2074624;28;20036;-82
2023/06/11 01:00:00;;;;;;;17.08;12.00;;;;;;;12.27;100.00;92886.63;2076982;28;20056;-82
2023/06/11 01:01:07;;;;;;;15.95;12.23;;;;;;;12.29;100.00;92884.28;2072001;28;20049;-82
2023/06/11 01:02:44;;;;;;;16.63;12.45;;;;;;;12.27;100.00;92885.88;2071987;28;20112;-83
2023/06/11 01:04:00;;;;;;;19.30;12.75;;;;;;;12.29;100.00;92880.84;2069556;28;20549;-82
2023/06/11 01:05:11;;;;;;;18.50;13.10;;;;;;;12.24;100.00;92878.69;2064159;28;20379;-82
2023/06/11 01:06:28;;;;;;;16.90;11.80;;;;;;;12.24;100.00;92884.81;2071142;28;20060;-80
2023/06/11 01:07:50;;;;;;;15.80;12.02;;;;;;;12.03;100.00;92880.16;2071087;28;20034;-81
2023/06/11 01:08:59;;;;;;;16.30;12.30;;;;;;;12.09;100.00;92881.84;2071937;28;20053;-82
2023/06/11 01:10:08;;;;;;;16.88;13.25;;;;;;;12.09;100.00;92884.53;2056603;28;20031;-85
2023/06/11 01:11:27;;;;;;;19.48;12.95;;;;;;;12.12;100.00;92882.91;2057385;28;20461;-83
2023/06/11 01:12:35;;;;;;;18.95;12.52;;;;;;;12.13;100.00;92876.38;2066279;28;20018;-83
2023/06/11 01:13:42;;;;;;;18.35;13.23;;;;;;;12.12;100.00;92882.16;2070906;28;20033;-81
2023/06/11 01:14:52;;;;;;;15.82;12.32;;;;;;;12.03;100.00;92880.88;2079376;28;20033;-82
2023/06/11 01:16:13;;;;;;;20.45;12.75;;;;;;;12.08;100.00;92883.03;2065693;28;20048;-82
2023/06/11 01:17:48;;;;;;;18.42;12.98;;;;;;;12.05;100.00;92883.88;2066927;28;20101;-82
2023/06/11 01:19:04;;;;;;;18.13;12.90;;;;;;;12.07;100.00;92884.22;2068374;28;20038;-82
2023/06/11 01:20:18;;;;;;;18.90;12.95;;;;;;;12.05;100.00;92888.50;2073973;28;20185;-83
2023/06/11 01:21:30;;;;;;;19.38;13.30;;;;;;;11.97;100.00;92885.28;2059914;28;20081;-82
2023/06/11 01:22:49;;;;;;;17.33;13.05;;;;;;;12.01;100.00;92882.50;2058759;28;20033;-81
2023/06/11 01:24:30;;;;;;;15.10;12.27;;;;;;;11.96;100.00;92883.78;2071067;28;20022;-80
2023/06/11 01:25:59;;;;;;;22.65;13.05;;;;;;;11.96;100.00;92883.78;2073813;28;20433;-81
2023/06/11 01:28:02;;;;;;;21.27;13.63;;;;;;;11.90;100.00;92882.81;2074076;28;20736;-83
2023/06/11 01:29:16;;;;;;;20.73;13.90;;;;;;;11.87;100.00;92886.34;2037493;29;20040;-80
2023/06/11 01:30:23;;;;;;;17.08;13.43;;;;;;;11.82;100.00;92884.97;2066509;28;20034;-81
2023/06/11 01:31:37;;;;;;;17.33;12.95;;;;;;;11.73;100.00;92890.19;2066516;28;20038;-83
2023/06/11 01:32:43;;;;;;;19.70;13.32;;;;;;;11.71;100.00;92889.84;2059380;28;20503;-85
2023/06/11 01:33:48;;;;;;;18.52;13.15;;;;;;;11.75;100.00;92889.75;2063113;28;20137;-83
2023/06/11 01:35:04;;;;;;;16.83;12.85;;;;;;;11.83;100.00;92885.72;2065919;28;20030;-82
2023/06/11 01:36:17;;;;;;;18.58;13.30;;;;;;;11.69;100.00;92892.22;2065688;28;20036;-82
2023/06/11 01:37:18;;;;;;;16.08;12.88;;;;;;;11.71;100.00;92889.09;2062001;28;20056;-83
2023/06/11 01:38:21;;;;;;;16.38;13.02;;;;;;;11.66;100.00;92885.03;2055516;28;20030;-82
2023/06/11 01:39:22;;;;;;;16.40;12.98;;;;;;;11.59;100.00;92890.63;2064016;28;20022;-81
2023/06/11 01:40:28;;;;;;;17.15;13.73;;;;;;;11.53;100.00;92893.06;2069810;28;20029;-80
2023/06/11 01:41:31;;;;;;;19.23;13.55;;;;;;;11.45;100.00;92889.06;2065061;28;20023;-82
2023/06/11 01:42:38;;;;;;;19.38;13.63;;;;;;;11.59;100.00;92885.25;2064966;28;20487;-80
2023/06/11 01:43:47;;;;;;;19.88;13.77;;;;;;;11.65;100.00;92888.91;2072227;28;20482;-81
2023/06/11 01:44:55;;;;;;;22.98;13.45;;;;;;;11.63;100.00;92888.56;2067772;28;20021;-83
2023/06/11 01:45:58;;;;;;;19.98;13.98;;;;;;;11.62;100.00;92889.00;2069704;28;20043;-83
2023/06/11 01:47:01;;;;;;;19.90;14.35;;;;;;;11.53;100.00;92879.66;2070296;28;20026;-82
2023/06/11 01:48:06;;;;;;;21.25;13.77;;;;;;;11.57;100.00;92885.66;2069350;28;20052;-82
2023/06/11 01:49:13;;;;;;;18.67;13.63;;;;;;;11.63;100.00;92885.13;2072591;28;20030;-84
2023/06/11 01:50:19;;;;;;;19.80;13.57;;;;;;;11.58;100.00;92886.41;2063829;28;20018;-83
2023/06/11 01:51:24;;;;;;;18.58;13.88;;;;;;;11.60;100.00;92887.50;2061414;28;20073;-83
2023/06/11 01:52:28;;;;;;;20.98;13.75;;;;;;;11.54;100.00;92888.44;2064401;28;20026;-83
2023/06/11 01:53:37;;;;;;;17.17;12.70;;;;;;;11.48;100.00;92887.47;2047948;28;20054;-83
2023/06/11 01:54:43;;;;;;;20.80;13.65;;;;;;;11.53;100.00;92882.34;2056254;28;20165;-81
2023/06/11 01:55:56;;;;;;;19.70;13.55;;;;;;;11.53;100.00;92884.28;2071856;28;20034;-83
2023/06/11 01:57:01;;;;;;;21.48;13.18;;;;;;;11.51;100.00;92890.06;2071847;28;20026;-83
2023/06/11 01:58:10;;;;;;;19.08;14.23;;;;;;;11.49;100.00;92879.03;2071547;28;20056;-82
2023/06/11 01:59:21;;;;;;;19.55;13.75;;;;;;;11.39;100.00;92884.69;2072767;28;20244;-84
2023/06/11 02:00:30;;;;;;;21.23;13.10;;;;;;;11.44;100.00;92890.25;2067771;28;20022;-83
2023/06/11 02:01:40;;;;;;;20.25;13.88;;;;;;;11.47;100.00;92894.78;2063829;28;20165;-82
2023/06/11 02:02:52;;;;;;;18.08;13.73;;;;;;;11.41;100.00;92885.00;2063818;28;20027;-84
2023/06/11 02:04:02;;;;;;;17.63;13.38;;;;;;;11.41;100.00;92893.03;2074080;28;20227;-80
2023/06/11 02:05:11;;;;;;;25.02;14.50;;;;;;;11.40;100.00;92889.59;2073081;28;20486;-83
2023/06/11 02:06:24;;;;;;;17.50;13.23;;;;;;;11.40;100.00;92883.50;2063105;28;20030;-83
2023/06/11 02:07:35;;;;;;;20.95;14.52;;;;;;;11.34;100.00;92888.66;2066798;28;20022;-83
2023/06/11 02:08:45;;;;;;;19.98;14.20;;;;;;;11.38;100.00;92881.28;2071801;28;20441;-82
2023/06/11 02:09:56;;;;;;;22.98;14.82;;;;;;;11.34;100.00;92884.03;2075187;28;20137;-84
2023/06/11 02:11:06;;;;;;;22.80;14.18;;;;;;;11.27;100.00;92881.56;2064197;28;20032;-82
2023/06/11 02:12:14;;;;;;;20.10;14.13;;;;;;;11.29;100.00;92884.56;2053785;28;20019;-83
2023/06/11 02:13:30;;;;;;;20.13;13.70;;;;;;;11.34;100.00;92889.38;2052719;28;20123;-84
2023/06/11 02:14:37;;;;;;;21.27;14.57;;;;;;;11.29;100.00;92879.22;2071133;28;20380;-83
2023/06/11 02:15:43;;;;;;;19.60;14.40;;;;;;;11.24;100.00;92887.03;2068816;28;20033;-84
2023/06/11 02:16:52;;;;;;;19.38;14.75;;;;;;;11.21;100.00;92888.63;2067737;28;20506;-82
2023/06/11 02:18:00;;;;;;;19.10;14.30;;;;;;;11.18;100.00;92876.09;2067667;28;20173;-82
2023/06/11 02:19:07;;;;;;;20.17;14.63;;;;;;;11.16;100.00;92875.75;2064802;28;20108;-82
2023/06/11 03:04:33;;;;;;;23.42;15.32;;;;;;;10.64;100.00;92897.41;2582975;22;19999;-81
2023/06/11 03:05:39;;;;;;;23.63;15.25;;;;;;;10.63;100.00;92902.00;2572047;23;20068;-80
2023/06/11 03:06:44;;;;;;;24.70;16.45;;;;;;;10.66;100.00;92903.81;2549267;23;20555;-82
2023/06/11 03:07:50;;;;;;;21.00;14.70;;;;;;;10.65;100.00;92893.56;2579260;23;20004;-81
2023/06/11 03:09:09;;;;;;;24.17;15.75;;;;;;;10.65;100.00;92901.56;2571729;23;20507;-80
2023/06/11 03:10:20;;;;;;;21.63;14.82;;;;;;;10.63;100.00;92899.34;2567573;23;20005;-82
2023/06/11 03:11:23;;;;;;;;;;;;;;;10.60;100.00;92897.50;2561366;23;20084;-81
2023/06/11 03:12:34;;;;;;;22.77;15.45;;;;;;;10.64;100.00;92900.81;2560052;23;20234;-80
2023/06/11 03:13:38;;;;;;;;;;;;;;;10.63;100.00;92899.34;2573649;23;20061;-82
2023/06/11 03:15:00;;;;;;;23.48;14.25;;;;;;;10.69;100.00;92900.31;2572565;23;19943;-82
2023/06/11 03:16:10;;;;;;;22.02;14.48;;;;;;;10.63;100.00;92904.69;2564056;23;20265;-81
2023/06/11 03:17:17;;;;;;;20.83;14.68;;;;;;;10.59;100.00;92899.41;2573545;23;20422;-80
2023/06/11 03:18:22;;;;;;;24.60;15.52;;;;;;;10.62;100.00;92905.09;2572007;23;20004;-82
2023/06/11 03:19:29;;;;;;;21.08;15.70;;;;;;;10.59;100.00;92901.34;2573627;23;20027;-81
2023/06/11 03:20:37;;;;;;;22.45;15.13;;;;;;;10.61;100.00;92903.59;2571830;23;20004;-80
2023/06/11 03:21:44;;;;;;;23.80;14.07;;;;;;;10.57;100.00;92901.75;2550064;23;20080;-85
2023/06/11 03:22:55;;;;;;;23.92;15.30;;;;;;;10.47;100.00;92899.34;2549813;23;20029;-81
2023/06/11 03:24:01;;;;;;;22.25;15.07;;;;;;;10.47;100.00;92896.69;2552397;23;20015;-83
2023/06/11 03:25:09;;;;;;;26.23;16.05;;;;;;;10.51;100.00;92900.75;2562901;23;20007;-86
2023/06/11 03:26:14;;;;;;;;;;;;;;;10.50;100.00;92906.53;2562747;23;20001;-80
2023/06/11 03:27:22;;;;;;;26.60;16.20;;;;;;;10.34;100.00;92900.03;2561642;23;19958;-80
2023/06/11 03:28:27;;;;;;;22.00;14.63;;;;;;;10.45;100.00;92905.13;2574779;23;20080;-82
2023/06/11 03:29:35;;;;;;;22.58;14.38;;;;;;;10.45;100.00;92905.13;2561252;23;20008;-81
2023/06/11 03:30:38;;;;;;;21.77;15.07;;;;;;;10.49;100.00;92903.13;2562669;23;20077;-83
2023/06/11 03:31:46;;;;;;;23.35;15.45;;;;;;;10.52;100.00;92906.84;2561198;23;20008;-82
2023/06/11 03:32:59;;;;;;;22.88;15.43;;;;;;;10.46;100.00;92905.88;2571388;23;20005;-83
2023/06/11 03:34:07;;;;;;;20.10;14.07;;;;;;;10.50;100.00;92903.88;2559931;23;20443;-79
2023/06/11 03:35:12;;;;;;;24.73;15.25;;;;;;;10.45;100.00;92905.13;2571149;23;20435;-81
2023/06/11 03:36:19;;;;;;;23.90;15.18;;;;;;;10.43;100.00;92904.78;2582001;22;20280;-81
2023/06/11 03:37:25;;;;;;;22.65;15.48;;;;;;;10.47;100.00;92899.34;2578965;23;20155;-81
2023/06/11 03:38:34;;;;;;;23.27;15.05;;;;;;;10.52;100.00;92904.19;2571571;22;20005;-80
2023/06/11 03:39:39;;;;;;;23.48;15.40;;;;;;;10.43;100.00;92904.78;2581716;23;20509;-80
2023/06/11 03:40:46;;;;;;;22.63;16.52;;;;;;;10.41;100.00;92899.13;2559297;23;20005;-81
2023/06/11 03:41:49;;;;;;;24.20;15.93;;;;;;;10.45;100.00;92905.13;2559542;23;20001;-80
2023/06/11 03:42:56;;;;;;;27.65;16.02;;;;;;;10.46;100.00;92898.59;2557669;23;20333;-81
2023/06/11 03:44:02;;;;;;;24.08;16.10;;;;;;;10.48;100.00;92906.19;2559432;23;20338;-85
2023/06/11 03:45:11;;;;;;;23.27;15.88;;;;;;;10.49;100.00;92903.13;2584350;22;20050;-80
2023/06/11 03:46:21;;;;;;;22.25;15.40;;;;;;;10.51;100.00;92905.34;2594389;22;20008;-83
2023/06/11 03:47:25;;;;;;;23.80;14.95;;;;;;;10.50;100.00;92907.28;2571598;23;20009;-82
2023/06/11 03:48:29;;;;;;;23.13;15.70;;;;;;;10.48;100.00;92912.28;2570437;23;20456;-81
2023/06/11 03:49:34;;;;;;;27.70;15.75;;;;;;;10.44;100.00;92908.19;2570500;22;20000;-82
2023/06/11 03:50:40;;;;;;;25.42;16.42;;;;;;;10.40;100.00;92910.94;2583234;22;20015;-82
2023/06/11 03:51:46;;;;;;;22.15;15.57;;;;;;;10.40;100.00;92900.25;2582529;22;20083;-81
2023/06/11 03:52:52;;;;;;;25.55;15.30;;;;;;;10.35;100.00;92906.13;2570437;23;20007;-80
2023/06/11 03:54:02;;;;;;;25.58;15.95;;;;;;;10.44;100.00;92903.59;2558856;23;20024;-79
2023/06/11 03:55:06;;;;;;;24.50;15.98;;;;;;;10.46;100.00;92903.19;2573048;22;20008;-80
2023/06/11 03:56:13;;;;;;;26.98;15.15;;;;;;;10.52;100.00;92906.84;2582299;22;20004;-82
2023/06/11 03:57:21;;;;;;;23.33;15.55;;;;;;;10.51;100.00;92900.75;2582716;22;20016;-81
2023/06/11 03:58:38;;;;;;;23.88;15.02;;;;;;;10.55;100.00;92914.03;2569761;23;20005;-83
2023/06/11 03:59:53;;;;;;;27.50;15.93;;;;;;;10.66;100.00;92908.41;2563646;23;20044;-81
2023/06/11 04:01:02;;;;;;;26.92;15.82;;;;;;;10.64;100.00;92910.78;2561697;23;20104;-81
2023/06/11 04:02:08;;;;;;;26.48;15.88;;;;;;;10.62;100.00;92907.75;2572509;22;20012;-83
2023/06/11 04:03:18;;;;;;;25.35;16.42;;;;;;;10.67;100.00;92904.56;2594360;22;20122;-81
2023/06/11 04:04:27;;;;;;;26.83;16.23;;;;;;;10.66;100.00;92905.75;2595070;22;20057;-83
2023/06/11 04:05:43;;;;;;;27.58;16.60;;;;;;;10.67;100.00;92912.59;2581304;23;20008;-81
2023/06/11 04:06:48;;;;;;;23.73;14.80;;;;;;;10.71;100.00;92905.22;2572024;23;20068;-80
2023/06/11 04:07:55;;;;;;;22.90;16.30;;;;;;;10.72;100.00;92914.78;2557741;23;20009;-82
2023/06/11 04:09:04;;;;;;;25.83;15.98;;;;;;;10.73;100.00;92914.34;2559622;23;20056;-83
2023/06/11 04:10:11;;;;;;;27.83;16.67;;;;;;;10.75;100.00;92916.59;2572259;22;20004;-81
2023/06/11 04:11:18;;;;;;;27.80;16.08;;;;;;;10.78;100.00;92921.09;2581078;23;20008;-80
2023/06/11 04:12:26;;;;;;;22.48;15.05;;;;;;;10.80;100.00;92916.09;2558828;23;20108;-81
2023/06/11 04:13:32;;;;;;;28.58;16.92;;;;;;;10.86;100.00;92919.75;2572295;22;20005;-82
2023/06/11 04:14:40;;;;;;;25.90;15.70;;;;;;;10.91;100.00;92924.56;2581725;23;20053;-83
2023/06/11 04:15:47;;;;;;;26.75;15.57;;;;;;;10.82;100.00;92921.75;2570908;23;20522;-81
2023/06/11 04:16:52;;;;;;;25.63;16.00;;;;;;;10.82;100.00;92921.75;2571809;22;20028;-83
2023/06/11 04:17:58;;;;;;;20.65;15.32;;;;;;;10.79;100.00;92923.34;2595156;22;20389;-83
2023/06/11 04:19:07;;;;;;;24.88;15.00;;;;;;;10.82;100.00;92925.19;2581690;23;20000;-83
2023/06/11 04:20:16;;;;;;;22.97;15.60;;;;;;;10.87;100.00;92923.91;2572482;22;20111;-82
2023/06/11 04:21:24;;;;;;;23.52;15.95;;;;;;;10.93;100.00;92927.59;2569673;23;20490;-79
2023/06/11 04:22:27;;;;;;;24.95;15.80;;;;;;;10.97;100.00;92925.53;2559719;23;20080;-81
2023/06/11 04:23:32;;;;;;;26.05;16.13;;;;;;;10.96;100.00;92931.31;2569247;23;20004;-81
2023/06/11 04:24:36;;;;;;;22.90;15.80;;;;;;;10.99;100.00;92925.16;2569904;23;20020;-82
2023/06/11 04:25:40;;;;;;;21.80;16.02;;;;;;;10.99;100.00;92933.91;2558429;23;20001;-81
2023/06/11 04:26:47;;;;;;;21.10;15.13;;;;;;;10.96;100.00;92926.72;2571211;22;20423;-81
2023/06/11 04:27:56;;;;;;;23.65;15.48;;;;;;;10.99;100.00;92928.56;2582695;22;20007;-81
2023/06/11 04:29:01;;;;;;;24.85;15.45;;;;;;;10.99;100.00;92928.56;2583267;22;20415;-81
2023/06/11 04:30:09;;;;;;;22.88;15.48;;;;;;;11.07;100.00;92934.47;2581302;23;20031;-85
2023/06/11 04:31:14;;;;;;;21.60;15.65;;;;;;;11.07;100.00;92927.22;2569997;23;20004;-81
2023/06/11 04:32:26;;;;;;;24.42;16.58;;;;;;;11.14;100.00;92928.94;2572486;22;19996;-80
2023/06/11 04:33:36;;;;;;;20.45;14.70;;;;;;;11.15;100.00;92930.44;2581546;23;20087;-81
2023/06/11 04:34:43;;;;;;;23.02;14.95;;;;;;;11.19;100.00;92935.69;2572523;22;20510;-81
2023/06/11 04:35:53;;;;;;;21.10;15.00;;;;;;;11.16;100.00;92936.56;2569842;23;20013;-83
2023/06/11 04:37:00;;;;;;;24.55;14.90;;;;;;;11.19;100.00;92933.00;2582744;22;20011;-82
2023/06/11 04:38:10;;;;;;;22.73;14.90;;;;;;;11.20;100.00;92931.84;2568983;23;20008;-83
2023/06/11 04:39:18;;;;;;;21.73;16.17;;;;;;;11.26;100.00;92938.91;2570750;23;20046;-83
2023/06/11 04:40:25;;;;;;;20.20;15.50;;;;;;;11.28;100.00;92941.94;2558821;23;20432;-80
2023/06/11 04:41:31;;;;;;;18.33;14.57;;;;;;;11.31;100.00;92943.00;2569795;23;20005;-83
2023/06/11 04:42:42;;;;;;;19.08;14.48;;;;;;;11.29;100.00;92945.38;2571909;22;20009;-80
2023/06/11 04:43:46;;;;;;;20.20;14.68;;;;;;;11.33;100.00;92946.03;2570455;23;20012;-84
2023/06/11 04:44:52;;;;;;;19.55;14.40;;;;;;;11.36;100.00;92939.78;2570096;23;20008;-80
2023/06/11 04:46:03;;;;;;;21.88;14.10;;;;;;;11.38;100.00;92936.72;2570296;23;20427;-83
2023/06/11 04:47:13;;;;;;;19.67;13.60;;;;;;;11.39;100.00;92941.63;2582079;23;20012;-82
2023/06/11 04:48:21;;;;;;;16.75;12.65;;;;;;;11.46;100.00;92940.69;2572885;22;20131;-80
2023/06/11 04:49:32;;;;;;;19.27;13.80;;;;;;;11.50;100.00;92941.31;2570439;23;20005;-82
2023/06/11 04:50:38;;;;;;;20.35;14.95;;;;;;;11.52;100.00;92937.06;2584148;22;20004;-83
2023/06/11 04:51:44;;;;;;;19.77;13.70;;;;;;;11.57;100.00;92946.50;2582439;22;20087;-82
2023/06/11 04:52:56;;;;;;;20.42;13.88;;;;;;;11.57;100.00;92947.25;2570253;23;20004;-81
2023/06/11 04:54:08;;;;;;;16.13;12.40;;;;;;;11.57;100.00;92933.84;2572023;23;20004;-80
2023/06/11 04:55:13;;;;;;;14.18;11.68;;;;;;;11.64;100.00;92943.63;2573749;22;20005;-82
2023/06/11 04:56:20;;;;;;;16.73;12.93;;;;;;;11.68;100.00;92938.91;2583001;22;20038;-83
2023/06/11 04:57:26;;;;;;;15.55;12.40;;;;;;;11.75;100.00;92940.63;2582025;23;19996;-82
2023/06/11 04:58:32;;;;;;;18.23;14.05;;;;;;;11.76;100.00;92932.16;2559295;23;20001;-81
2023/06/11 04:59:39;;;;;;;18.83;13.68;;;;;;;11.80;100.00;92930.13;2569717;23;20004;-81
2023/06/11 05:00:49;;;;;;;18.42;13.13;;;;;;;11.91;100.00;92937.13;2571245;22;20011;-83
2023/06/11 05:01:55;;;;;;;16.33;13.63;;;;;;;12.06;100.00;92935.53;2583189;22;20454;-84
2023/06/11 05:03:01;;;;;;;16.60;12.73;;;;;;;12.04;100.00;92935.97;2583006;22;20094;-81
2023/06/11 05:04:10;;;;;;;17.60;13.00;;;;;;;12.03;100.00;92934.47;2571011;23;20040;-81
2023/06/11 05:05:19;;;;;;;16.05;12.00;;;;;;;12.07;100.00;92935.13;2572674;22;20088;-82
2023/06/11 05:06:21;;;;;;;13.85;12.10;;;;;;;12.15;100.00;92932.94;2569136;23;20005;-82
2023/06/11 05:07:22;;;;;;;14.82;12.50;;;;;;;12.18;100.00;92926.75;2556242;23;20012;-82
2023/06/11 05:08:25;;;;;;;15.73;11.85;;;;;;;12.20;100.00;92926.28;2568969;23;20001;-81
2023/06/11 05:09:26;;;;;;;15.50;12.30;;;;;;;12.25;100.00;92931.88;2556547;23;20024;-83
2023/06/11 05:10:27;;;;;;;14.38;12.43;;;;;;;12.30;100.00;92930.59;2556573;23;20092;-83
2023/06/11 05:11:28;;;;;;;14.65;11.93;;;;;;;12.31;100.00;92929.41;2575307;23;20004;-81
2023/06/11 05:12:29;;;;;;;13.27;11.95;;;;;;;12.40;100.00;92929.50;2553558;23;20023;-83
2023/06/11 05:13:31;;;;;;;15.45;12.35;;;;;;;12.55;100.00;92929.78;2565574;23;20151;-80
2023/06/11 05:14:32;;;;;;;15.65;11.60;;;;;;;12.54;100.00;92926.34;2568408;23;20059;-83
2023/06/11 05:15:34;;;;;;;11.88;10.65;;;;;;;12.57;100.00;92930.13;2555319;23;20015;-82
2023/06/11 05:16:35;;;;;;;12.95;11.63;;;;;;;12.63;100.00;92930.31;2543242;23;20491;-82
2023/06/11 05:17:38;;;;;;;12.45;11.13;;;;;;;12.68;100.00;92932.44;2556060;23;20001;-82
2023/06/11 05:18:40;;;;;;;12.18;10.88;;;;;;;12.67;100.00;92933.63;2567769;23;20047;-81
2023/06/11 05:19:43;;;;;;;13.07;11.68;;;;;;;12.76;100.00;92936.38;2543945;23;20003;-83
2023/06/11 05:20:45;;;;;;;19.73;14.82;;;;;;;12.88;100.00;92932.19;2567966;22;20110;-84
2023/06/11 05:21:49;;;;;;;16.92;13.77;;;;;;;12.94;100.00;92938.47;2567395;23;20011;-82
2023/06/11 05:22:53;;;;;;;13.32;11.95;;;;;;;13.03;100.00;92927.81;2557380;23;20097;-84
2023/06/11 05:23:54;;;;;;;14.20;12.70;;;;;;;13.06;100.00;92937.69;2569153;23;20098;-81
2023/06/11 05:24:55;;;;;;;15.23;13.50;;;;;;;13.16;100.00;92941.19;2580586;23;20054;-81
2023/06/11 05:26:11;;;;;;;14.23;12.73;;;;;;;13.18;100.00;92938.84;2580101;23;20428;-81
2023/06/11 05:27:13;;;;;;;17.17;13.48;;;;;;;13.24;100.00;92942.47;2571194;23;20111;-82
2023/06/11 05:28:15;;;;;;;18.35;13.70;;;;;;;13.30;100.00;92944.19;2556728;23;20075;-83
2023/06/11 05:29:16;;;;;;;13.55;12.10;;;;;;;13.31;100.00;92942.25;2544474;23;20044;-80
2023/06/11 05:30:18;;;;;;;14.38;12.82;;;;;;;13.25;100.00;92946.66;2556282;23;20083;-81
2023/06/11 05:31:21;;;;;;;13.27;11.98;;;;;;;13.32;100.00;92938.38;2568543;23;20000;-82
2023/06/11 05:32:22;;;;;;;15.32;12.27;;;;;;;13.49;100.00;92955.03;2568228;23;20446;-82
2023/06/11 05:33:26;;;;;;;14.52;11.95;;;;;;;13.51;100.00;92939.97;2580958;22;20308;-82
2023/06/11 05:34:27;;;;;;;15.95;12.00;;;;;;;13.57;100.00;92945.53;2580856;23;20004;-80
2023/06/11 05:35:28;;;;;;;14.43;11.82;;;;;;;13.72;100.00;92943.09;2555735;23;20005;-82
2023/06/11 05:36:29;;;;;;;14.85;12.00;;;;;;;13.84;100.00;92950.31;2543599;23;20005;-84
2023/06/11 05:37:30;;;;;;;13.13;11.60;;;;;;;14.02;100.00;92949.66;2555576;23;20063;-81
2023/06/11 05:38:33;;;;;;;12.20;10.98;;;;;;;14.14;100.00;92948.81;2555404;23;20005;-84
2023/06/11 05:39:34;;;;;;;14.30;11.65;;;;;;;14.14;100.00;92951.50;2543751;23;20009;-81
2023/06/11 05:40:38;;;;;;;11.88;10.60;;;;;;;14.16;100.00;92948.38;2543821;23;19997;-83
2023/06/11 05:41:40;;;;;;;11.93;10.73;;;;;;;14.18;100.00;92951.34;2556842;23;20011;-81
2023/06/11 05:42:43;;;;;;;13.38;10.95;;;;;;;14.23;100.00;92950.78;2567876;23;20055;-81
2023/06/11 05:43:46;;;;;;;12.18;10.93;;;;;;;14.40;100.00;92946.66;2568661;22;20008;-82
2023/06/11 05:44:47;;;;;;;11.60;10.50;;;;;;;14.38;100.00;92951.72;2568266;23;20004;-84
2023/06/11 05:45:49;;;;;;;12.05;10.38;;;;;;;14.39;100.00;92950.53;2555833;23;20008;-83
2023/06/11 05:46:50;;;;;;;12.20;11.00;;;;;;;14.31;100.00;92943.91;2556077;23;20013;-84
2023/06/11 05:47:51;;;;;;;12.48;11.07;;;;;;;14.32;100.00;92945.44;2556094;23;20016;-82
2023/06/11 05:48:52;;;;;;;12.35;10.93;;;;;;;14.34;100.00;92943.03;2568272;23;20348;-80
2023/06/11 05:49:54;;;;;;;13.48;11.00;;;;;;;14.37;100.00;92950.25;2568104;23;19997;-83
2023/06/11 05:50:55;;;;;;;14.10;11.38;;;;;;;14.42;100.00;92946.22;2543023;23;20028;-81
2023/06/11 05:51:56;;;;;;;12.73;10.68;;;;;;;14.44;100.00;92946.50;2555257;23;20096;-80